sensor_id;sensor_type;location;lat;lon;timestamp;pressure;altitude;pressure_sealevel;temperature;humidity
37904;BME280;23738;50.422;18.758;2023-02-20T00:00:39;99073.77;;;0.59;83.31
37904;BME280;23738;50.422;18.758;2023-02-20T00:03:17;99076.02;;;0.59;83.49
37904;BME280;23738;50.422;18.758;2023-02-20T00:05:45;99070.52;;;0.55;83.59
37904;BME280;23738;50.422;18.758;2023-02-20T00:08:32;99066.54;;;0.54;83.85
37904;BME280;23738;50.422;18.758;2023-02-20T00:11:20;99064.91;;;0.54;83.54
37904;BME280;23738;50.422;18.758;2023-02-20T00:14:07;99064.95;;;0.53;83.56
37904;BME280;23738;50.422;18.758;2023-02-20T00:16:46;99068.41;;;0.55;83.40
37904;BME280;23738;50.422;18.758;2023-02-20T00:19:13;99065.97;;;0.57;83.63
37904;BME280;23738;50.422;18.758;2023-02-20T00:21:45;99055.67;;;0.56;83.71
37904;BME280;23738;50.422;18.758;2023-02-20T00:24:29;99071.71;;;0.63;83.35
37904;BME280;23738;50.422;18.758;2023-02-20T00:26:56;99068.16;;;0.58;83.48
37904;BME280;23738;50.422;18.758;2023-02-20T00:29:43;99067.27;;;0.56;83.50
37904;BME280;23738;50.422;18.758;2023-02-20T00:32:55;99073.40;;;0.51;83.68
37904;BME280;23738;50.422;18.758;2023-02-20T00:35:39;99073.01;;;0.50;83.56
37904;BME280;23738;50.422;18.758;2023-02-20T00:38:07;99077.98;;;0.52;83.54
37904;BME280;23738;50.422;18.758;2023-02-20T00:40:34;99075.13;;;0.53;83.48
37904;BME280;23738;50.422;18.758;2023-02-20T00:43:02;99064.83;;;0.52;83.45
37904;BME280;23738;50.422;18.758;2023-02-20T00:45:30;99069.11;;;0.59;83.79
37904;BME280;23738;50.422;18.758;2023-02-20T00:47:57;99061.77;;;0.56;83.72
37904;BME280;23738;50.422;18.758;2023-02-20T00:50:24;99070.89;;;0.59;83.86
37904;BME280;23738;50.422;18.758;2023-02-20T00:52:52;99068.27;;;0.57;83.72
37904;BME280;23738;50.422;18.758;2023-02-20T00:55:39;99074.09;;;0.56;83.73
37904;BME280;23738;50.422;18.758;2023-02-20T00:58:07;99076.40;;;0.53;83.87
37904;BME280;23738;50.422;18.758;2023-02-20T01:00:51;99078.63;;;0.59;83.84
37904;BME280;23738;50.422;18.758;2023-02-20T01:03:19;99077.23;;;0.66;83.93
37904;BME280;23738;50.422;18.758;2023-02-20T01:05:50;99078.95;;;0.68;83.85
37904;BME280;23738;50.422;18.758;2023-02-20T01:08:18;99074.98;;;0.68;83.91
37904;BME280;23738;50.422;18.758;2023-02-20T01:10:46;99075.99;;;0.72;84.03
37904;BME280;23738;50.422;18.758;2023-02-20T01:13:14;99071.69;;;0.74;84.21
37904;BME280;23738;50.422;18.758;2023-02-20T01:15:41;99065.38;;;0.73;84.00
37904;BME280;23738;50.422;18.758;2023-02-20T01:18:29;99064.46;;;0.69;84.03
37904;BME280;23738;50.422;18.758;2023-02-20T01:21:04;99058.08;;;0.71;84.21
37904;BME280;23738;50.422;18.758;2023-02-20T01:23:32;99059.63;;;0.73;83.99
37904;BME280;23738;50.422;18.758;2023-02-20T01:25:59;99059.77;;;0.74;84.01
37904;BME280;23738;50.422;18.758;2023-02-20T01:28:47;99061.23;;;0.82;84.32
37904;BME280;23738;50.422;18.758;2023-02-20T01:31:15;99056.20;;;0.86;84.36
37904;BME280;23738;50.422;18.758;2023-02-20T01:33:58;99050.20;;;0.83;84.02
37904;BME280;23738;50.422;18.758;2023-02-20T01:36:46;99047.34;;;0.80;84.11
37904;BME280;23738;50.422;18.758;2023-02-20T01:39:17;99049.48;;;0.79;84.31
37904;BME280;23738;50.422;18.758;2023-02-20T01:41:47;99054.52;;;0.74;84.17
37904;BME280;23738;50.422;18.758;2023-02-20T01:44:20;99051.44;;;0.72;84.02
37904;BME280;23738;50.422;18.758;2023-02-20T01:46:50;99046.85;;;0.71;83.98
37904;BME280;23738;50.422;18.758;2023-02-20T01:49:25;99048.81;;;0.72;84.07
37904;BME280;23738;50.422;18.758;2023-02-20T01:51:58;99040.95;;;0.72;83.98
37904;BME280;23738;50.422;18.758;2023-02-20T01:54:30;99031.30;;;0.70;84.03
37904;BME280;23738;50.422;18.758;2023-02-20T01:57:19;99025.63;;;0.71;84.15
37904;BME280;23738;50.422;18.758;2023-02-20T01:59:49;99017.65;;;0.69;84.08
37904;BME280;23738;50.422;18.758;2023-02-20T02:02:21;99010.38;;;0.67;84.14
37904;BME280;23738;50.422;18.758;2023-02-20T02:04:50;98992.80;;;0.64;84.10
37904;BME280;23738;50.422;18.758;2023-02-20T02:07:53;98998.39;;;0.70;84.31
37904;BME280;23738;50.422;18.758;2023-02-20T02:10:45;98993.44;;;0.75;84.27
37904;BME280;23738;50.422;18.758;2023-02-20T02:13:33;98991.84;;;0.80;84.42
37904;BME280;23738;50.422;18.758;2023-02-20T02:16:10;98979.09;;;0.81;84.52
37904;BME280;23738;50.422;18.758;2023-02-20T02:18:51;98978.59;;;0.87;84.52
37904;BME280;23738;50.422;18.758;2023-02-20T02:21:43;98986.33;;;0.88;84.31
37904;BME280;23738;50.422;18.758;2023-02-20T02:24:38;98989.18;;;0.87;84.45
37904;BME280;23738;50.422;18.758;2023-02-20T02:31:03;98995.52;;;0.88;84.22
37904;BME280;23738;50.422;18.758;2023-02-20T02:34:07;98990.06;;;0.85;84.22
37904;BME280;23738;50.422;18.758;2023-02-20T02:36:55;98974.05;;;0.81;84.16
37904;BME280;23738;50.422;18.758;2023-02-20T02:39:34;98965.79;;;0.84;84.27
37904;BME280;23738;50.422;18.758;2023-02-20T02:42:10;98958.37;;;0.84;84.29
37904;BME280;23738;50.422;18.758;2023-02-20T02:44:45;98952.13;;;0.84;84.47
37904;BME280;23738;50.422;18.758;2023-02-20T02:47:21;98955.10;;;0.86;84.41
37904;BME280;23738;50.422;18.758;2023-02-20T02:49:53;98960.77;;;0.89;84.20
37904;BME280;23738;50.422;18.758;2023-02-20T02:52:23;98970.76;;;0.94;84.48
37904;BME280;23738;50.422;18.758;2023-02-20T02:55:35;98972.91;;;0.95;84.41
37904;BME280;23738;50.422;18.758;2023-02-20T02:58:23;98974.25;;;0.97;84.45
37904;BME280;23738;50.422;18.758;2023-02-20T03:00:56;98970.98;;;0.95;84.53
37904;BME280;23738;50.422;18.758;2023-02-20T03:03:28;98976.60;;;0.98;84.54
37904;BME280;23738;50.422;18.758;2023-02-20T03:06:00;98976.65;;;0.94;84.26
37904;BME280;23738;50.422;18.758;2023-02-20T03:08:33;98969.60;;;0.89;84.41
37904;BME280;23738;50.422;18.758;2023-02-20T03:11:07;98968.98;;;0.92;84.30
37904;BME280;23738;50.422;18.758;2023-02-20T03:13:43;98973.27;;;0.93;84.53
37904;BME280;23738;50.422;18.758;2023-02-20T03:16:34;98962.72;;;0.94;84.38
37904;BME280;23738;50.422;18.758;2023-02-20T03:19:11;98957.49;;;0.98;84.51
37904;BME280;23738;50.422;18.758;2023-02-20T03:21:44;98949.13;;;0.97;84.34
37904;BME280;23738;50.422;18.758;2023-02-20T03:24:17;98939.40;;;0.95;84.55
37904;BME280;23738;50.422;18.758;2023-02-20T03:26:48;98943.44;;;0.95;84.45
37904;BME280;23738;50.422;18.758;2023-02-20T03:29:20;98941.38;;;0.90;84.33
37904;BME280;23738;50.422;18.758;2023-02-20T03:31:52;98938.77;;;0.90;84.21
37904;BME280;23738;50.422;18.758;2023-02-20T03:34:40;98944.77;;;0.93;84.40
37904;BME280;23738;50.422;18.758;2023-02-20T03:37:28;98944.77;;;0.91;84.20
37904;BME280;23738;50.422;18.758;2023-02-20T03:40:35;98947.02;;;0.88;83.97
37904;BME280;23738;50.422;18.758;2023-02-20T03:43:41;98947.45;;;0.84;84.28
37904;BME280;23738;50.422;18.758;2023-02-20T03:46:39;98946.67;;;0.70;83.86
37904;BME280;23738;50.422;18.758;2023-02-20T03:49:09;98954.52;;;0.66;84.11
37904;BME280;23738;50.422;18.758;2023-02-20T03:51:37;98962.29;;;0.62;84.05
37904;BME280;23738;50.422;18.758;2023-02-20T03:54:43;98962.91;;;0.58;83.97
37904;BME280;23738;50.422;18.758;2023-02-20T03:57:14;98962.16;;;0.55;83.96
37904;BME280;23738;50.422;18.758;2023-02-20T03:59:45;98957.60;;;0.56;84.00
37904;BME280;23738;50.422;18.758;2023-02-20T04:02:35;98947.16;;;0.58;83.97
37904;BME280;23738;50.422;18.758;2023-02-20T04:05:09;98936.76;;;0.54;83.65
37904;BME280;23738;50.422;18.758;2023-02-20T04:07:42;98931.31;;;0.49;83.78
37904;BME280;23738;50.422;18.758;2023-02-20T04:10:17;98928.75;;;0.44;83.70
37904;BME280;23738;50.422;18.758;2023-02-20T04:12:56;98922.73;;;0.35;83.65
37904;BME280;23738;50.422;18.758;2023-02-20T04:15:29;98911.49;;;0.29;83.56
37904;BME280;23738;50.422;18.758;2023-02-20T04:18:04;98910.33;;;0.22;83.50
37904;BME280;23738;50.422;18.758;2023-02-20T04:20:33;98915.52;;;0.15;83.47
37904;BME280;23738;50.422;18.758;2023-02-20T04:23:04;98926.11;;;0.15;83.66
37904;BME280;23738;50.422;18.758;2023-02-20T04:25:40;98927.00;;;0.11;83.59
37904;BME280;23738;50.422;18.758;2023-02-20T04:28:29;98925.20;;;0.12;83.52
37904;BME280;23738;50.422;18.758;2023-02-20T04:31:38;98931.06;;;0.08;83.68
37904;BME280;23738;50.422;18.758;2023-02-20T04:34:26;98926.10;;;0.05;83.62
37904;BME280;23738;50.422;18.758;2023-02-20T04:37:05;98915.30;;;-0.05;83.51
37904;BME280;23738;50.422;18.758;2023-02-20T04:39:53;98916.83;;;-0.09;83.51
37904;BME280;23738;50.422;18.758;2023-02-20T04:42:39;98906.77;;;-0.11;83.46
37904;BME280;23738;50.422;18.758;2023-02-20T04:45:08;98897.61;;;-0.11;83.59
37904;BME280;23738;50.422;18.758;2023-02-20T04:47:36;98896.66;;;-0.10;83.61
37904;BME280;23738;50.422;18.758;2023-02-20T04:50:25;98895.52;;;-0.07;83.83
37904;BME280;23738;50.422;18.758;2023-02-20T04:53:08;98895.27;;;-0.04;83.86
37904;BME280;23738;50.422;18.758;2023-02-20T04:55:43;98895.62;;;-0.06;83.73
37904;BME280;23738;50.422;18.758;2023-02-20T04:58:30;98890.00;;;-0.09;83.71
37904;BME280;23738;50.422;18.758;2023-02-20T05:01:23;98875.09;;;-0.13;83.80
37904;BME280;23738;50.422;18.758;2023-02-20T05:03:50;98869.38;;;-0.16;83.63
37904;BME280;23738;50.422;18.758;2023-02-20T05:06:47;98860.39;;;-0.16;83.79
37904;BME280;23738;50.422;18.758;2023-02-20T05:09:15;98858.69;;;-0.12;83.71
37904;BME280;23738;50.422;18.758;2023-02-20T05:11:44;98857.48;;;-0.07;84.01
37904;BME280;23738;50.422;18.758;2023-02-20T05:14:16;98859.08;;;0.00;83.99
37904;BME280;23738;50.422;18.758;2023-02-20T05:17:04;98863.58;;;0.03;83.96
37904;BME280;23738;50.422;18.758;2023-02-20T05:19:51;98866.96;;;0.04;84.08
37904;BME280;23738;50.422;18.758;2023-02-20T05:22:19;98868.89;;;0.05;84.19
37904;BME280;23738;50.422;18.758;2023-02-20T05:24:49;98873.36;;;0.06;83.97
37904;BME280;23738;50.422;18.758;2023-02-20T05:27:45;98881.65;;;0.09;84.01
37904;BME280;23738;50.422;18.758;2023-02-20T05:30:48;98878.06;;;0.16;84.05
37904;BME280;23738;50.422;18.758;2023-02-20T05:33:16;98875.66;;;0.18;84.01
37904;BME280;23738;50.422;18.758;2023-02-20T05:35:59;98876.84;;;0.18;84.02
37904;BME280;23738;50.422;18.758;2023-02-20T05:38:35;98871.03;;;0.19;84.06
37904;BME280;23738;50.422;18.758;2023-02-20T05:41:02;98860.48;;;0.17;84.14
37904;BME280;23738;50.422;18.758;2023-02-20T05:43:50;98857.90;;;0.15;83.94
37904;BME280;23738;50.422;18.758;2023-02-20T05:46:20;98847.24;;;0.06;83.95
37904;BME280;23738;50.422;18.758;2023-02-20T05:48:49;98851.52;;;0.04;83.87
37904;BME280;23738;50.422;18.758;2023-02-20T05:51:21;98857.13;;;0.03;83.85
37904;BME280;23738;50.422;18.758;2023-02-20T05:53:49;98866.02;;;0.03;83.75
37904;BME280;23738;50.422;18.758;2023-02-20T05:56:40;98863.98;;;-0.03;83.66
37904;BME280;23738;50.422;18.758;2023-02-20T05:59:23;98869.19;;;0.02;83.93
37904;BME280;23738;50.422;18.758;2023-02-20T06:02:10;98871.41;;;0.00;83.90
37904;BME280;23738;50.422;18.758;2023-02-20T06:04:40;98869.67;;;-0.04;83.77
37904;BME280;23738;50.422;18.758;2023-02-20T06:07:11;98872.42;;;-0.08;83.84
37904;BME280;23738;50.422;18.758;2023-02-20T06:09:42;98882.88;;;-0.11;83.67
37904;BME280;23738;50.422;18.758;2023-02-20T06:12:10;98876.92;;;-0.12;83.82
37904;BME280;23738;50.422;18.758;2023-02-20T06:14:57;98876.80;;;-0.11;83.72
37904;BME280;23738;50.422;18.758;2023-02-20T06:17:25;98865.18;;;-0.09;83.72
37904;BME280;23738;50.422;18.758;2023-02-20T06:19:53;98874.05;;;-0.05;83.77
37904;BME280;23738;50.422;18.758;2023-02-20T06:22:20;98876.50;;;0.01;84.00
37904;BME280;23738;50.422;18.758;2023-02-20T06:24:48;98874.65;;;0.07;84.06
37904;BME280;23738;50.422;18.758;2023-02-20T06:27:16;98871.23;;;0.11;84.04
37904;BME280;23738;50.422;18.758;2023-02-20T06:29:46;98873.40;;;0.14;84.22
37904;BME280;23738;50.422;18.758;2023-02-20T06:32:14;98871.83;;;0.14;84.10
37904;BME280;23738;50.422;18.758;2023-02-20T06:34:43;98867.86;;;0.14;84.14
37904;BME280;23738;50.422;18.758;2023-02-20T06:37:10;98869.95;;;0.16;84.01
37904;BME280;23738;50.422;18.758;2023-02-20T06:39:37;98865.02;;;0.21;84.24
37904;BME280;23738;50.422;18.758;2023-02-20T06:42:06;98864.39;;;0.29;84.52
37904;BME280;23738;50.422;18.758;2023-02-20T06:44:33;98871.25;;;0.36;84.46
37904;BME280;23738;50.422;18.758;2023-02-20T06:47:00;98872.55;;;0.36;84.28
37904;BME280;23738;50.422;18.758;2023-02-20T06:49:28;98869.29;;;0.36;84.35
37904;BME280;23738;50.422;18.758;2023-02-20T06:51:55;98872.38;;;0.36;84.21
37904;BME280;23738;50.422;18.758;2023-02-20T06:54:22;98873.33;;;0.38;84.40
37904;BME280;23738;50.422;18.758;2023-02-20T06:56:49;98865.58;;;0.43;84.41
37904;BME280;23738;50.422;18.758;2023-02-20T06:59:18;98858.52;;;0.51;84.44
37904;BME280;23738;50.422;18.758;2023-02-20T07:01:45;98859.83;;;0.60;84.55
37904;BME280;23738;50.422;18.758;2023-02-20T07:04:17;98866.69;;;0.69;84.61
37904;BME280;23738;50.422;18.758;2023-02-20T07:06:45;98872.76;;;0.78;84.59
37904;BME280;23738;50.422;18.758;2023-02-20T07:09:13;98873.85;;;0.81;84.52
37904;BME280;23738;50.422;18.758;2023-02-20T07:11:40;98869.98;;;0.86;84.76
37904;BME280;23738;50.422;18.758;2023-02-20T07:14:08;98856.30;;;0.89;84.63
37904;BME280;23738;50.422;18.758;2023-02-20T07:16:36;98855.75;;;0.90;84.66
37904;BME280;23738;50.422;18.758;2023-02-20T07:19:03;98852.56;;;0.88;84.43
37904;BME280;23738;50.422;18.758;2023-02-20T07:21:30;98847.12;;;0.93;84.37
37904;BME280;23738;50.422;18.758;2023-02-20T07:23:57;98843.27;;;0.98;84.32
37904;BME280;23738;50.422;18.758;2023-02-20T07:26:26;98844.97;;;1.04;84.35
37904;BME280;23738;50.422;18.758;2023-02-20T07:28:55;98841.91;;;1.07;84.14
37904;BME280;23738;50.422;18.758;2023-02-20T07:31:24;98837.40;;;1.09;84.54
37904;BME280;23738;50.422;18.758;2023-02-20T07:33:51;98840.25;;;1.17;84.49
37904;BME280;23738;50.422;18.758;2023-02-20T07:36:19;98832.66;;;1.20;84.48
37904;BME280;23738;50.422;18.758;2023-02-20T07:38:54;98826.70;;;1.23;84.53
37904;BME280;23738;50.422;18.758;2023-02-20T07:41:21;98824.88;;;1.26;84.43
37904;BME280;23738;50.422;18.758;2023-02-20T07:43:49;98816.36;;;1.30;84.58
37904;BME280;23738;50.422;18.758;2023-02-20T07:46:16;98801.80;;;1.37;84.36
37904;BME280;23738;50.422;18.758;2023-02-20T07:48:43;98795.95;;;1.46;84.47
37904;BME280;23738;50.422;18.758;2023-02-20T07:51:11;98787.70;;;1.55;84.43
37904;BME280;23738;50.422;18.758;2023-02-20T07:53:38;98779.89;;;1.63;84.54
37904;BME280;23738;50.422;18.758;2023-02-20T07:56:06;98782.93;;;1.70;84.57
37904;BME280;23738;50.422;18.758;2023-02-20T07:58:33;98786.50;;;1.73;84.54
37904;BME280;23738;50.422;18.758;2023-02-20T08:01:00;98785.08;;;1.75;84.59
37904;BME280;23738;50.422;18.758;2023-02-20T08:03:27;98785.78;;;1.79;84.51
37904;BME280;23738;50.422;18.758;2023-02-20T08:05:54;98788.03;;;1.85;84.69
37904;BME280;23738;50.422;18.758;2023-02-20T08:08:21;98782.85;;;1.94;84.82
37904;BME280;23738;50.422;18.758;2023-02-20T08:10:51;98784.91;;;2.01;84.65
37904;BME280;23738;50.422;18.758;2023-02-20T08:13:19;98786.90;;;2.08;84.52
37904;BME280;23738;50.422;18.758;2023-02-20T08:15:46;98791.41;;;2.14;84.59
37904;BME280;23738;50.422;18.758;2023-02-20T08:18:13;98785.88;;;2.19;85.03
37904;BME280;23738;50.422;18.758;2023-02-20T08:20:41;98781.77;;;2.26;85.05
37904;BME280;23738;50.422;18.758;2023-02-20T08:23:16;98778.06;;;2.36;85.00
37904;BME280;23738;50.422;18.758;2023-02-20T08:25:43;98768.65;;;2.53;85.02
37904;BME280;23738;50.422;18.758;2023-02-20T08:28:10;98756.31;;;2.64;84.97
37904;BME280;23738;50.422;18.758;2023-02-20T08:30:36;98751.46;;;2.75;84.97
37904;BME280;23738;50.422;18.758;2023-02-20T08:33:03;98745.35;;;2.88;85.44
37904;BME280;23738;50.422;18.758;2023-02-20T08:35:32;98744.05;;;3.03;85.25
37904;BME280;23738;50.422;18.758;2023-02-20T08:38:00;98748.96;;;3.16;85.48
37904;BME280;23738;50.422;18.758;2023-02-20T08:40:28;98749.88;;;3.28;85.54
37904;BME280;23738;50.422;18.758;2023-02-20T08:42:55;98744.95;;;3.35;85.11
37904;BME280;23738;50.422;18.758;2023-02-20T08:45:23;98738.86;;;3.41;84.92
37904;BME280;23738;50.422;18.758;2023-02-20T08:47:50;98733.09;;;3.44;84.80
37904;BME280;23738;50.422;18.758;2023-02-20T08:50:19;98721.73;;;3.49;84.68
37904;BME280;23738;50.422;18.758;2023-02-20T08:52:46;98716.45;;;3.51;84.80
37904;BME280;23738;50.422;18.758;2023-02-20T08:55:14;98709.71;;;3.52;84.90
37904;BME280;23738;50.422;18.758;2023-02-20T08:57:43;98711.12;;;3.54;84.76
37904;BME280;23738;50.422;18.758;2023-02-20T09:00:14;98710.27;;;3.57;84.65
37904;BME280;23738;50.422;18.758;2023-02-20T09:02:42;98708.89;;;3.60;84.71
37904;BME280;23738;50.422;18.758;2023-02-20T09:05:10;98706.80;;;3.66;84.72
37904;BME280;23738;50.422;18.758;2023-02-20T09:07:37;98700.28;;;3.70;84.76
37904;BME280;23738;50.422;18.758;2023-02-20T09:10:05;98694.74;;;3.71;84.46
37904;BME280;23738;50.422;18.758;2023-02-20T09:12:32;98688.34;;;3.71;84.44
37904;BME280;23738;50.422;18.758;2023-02-20T09:15:00;98691.25;;;3.71;84.53
37904;BME280;23738;50.422;18.758;2023-02-20T09:17:28;98695.50;;;3.71;84.35
37904;BME280;23738;50.422;18.758;2023-02-20T09:19:55;98686.83;;;3.70;84.22
37904;BME280;23738;50.422;18.758;2023-02-20T09:22:23;98683.48;;;3.71;84.26
37904;BME280;23738;50.422;18.758;2023-02-20T09:24:51;98679.33;;;3.70;84.20
37904;BME280;23738;50.422;18.758;2023-02-20T09:27:19;98670.34;;;3.70;84.28
37904;BME280;23738;50.422;18.758;2023-02-20T09:29:47;98673.86;;;3.69;84.54
37904;BME280;23738;50.422;18.758;2023-02-20T09:32:14;98658.40;;;3.67;84.32
37904;BME280;23738;50.422;18.758;2023-02-20T09:34:42;98657.15;;;3.71;84.42
37904;BME280;23738;50.422;18.758;2023-02-20T09:37:10;98658.31;;;3.73;84.50
37904;BME280;23738;50.422;18.758;2023-02-20T09:39:37;98658.07;;;3.77;84.37
37904;BME280;23738;50.422;18.758;2023-02-20T09:42:17;98652.42;;;3.78;84.22
37904;BME280;23738;50.422;18.758;2023-02-20T09:44:58;98651.02;;;3.80;84.19
37904;BME280;23738;50.422;18.758;2023-02-20T09:47:40;98647.84;;;3.80;84.27
37904;BME280;23738;50.422;18.758;2023-02-20T09:50:13;98644.06;;;3.81;84.36
37904;BME280;23738;50.422;18.758;2023-02-20T09:52:45;98645.07;;;3.83;84.39
37904;BME280;23738;50.422;18.758;2023-02-20T09:55:20;98648.19;;;3.83;84.34
37904;BME280;23738;50.422;18.758;2023-02-20T09:57:51;98645.39;;;3.89;84.36
37904;BME280;23738;50.422;18.758;2023-02-20T10:00:26;98645.58;;;3.96;84.45
37904;BME280;23738;50.422;18.758;2023-02-20T10:03:00;98638.45;;;4.04;84.34
37904;BME280;23738;50.422;18.758;2023-02-20T10:05:33;98631.89;;;4.12;84.45
37904;BME280;23738;50.422;18.758;2023-02-20T10:08:00;98621.07;;;4.19;84.43
37904;BME280;23738;50.422;18.758;2023-02-20T10:10:30;98613.99;;;4.22;84.23
37904;BME280;23738;50.422;18.758;2023-02-20T10:13:06;98607.49;;;4.22;84.41
37904;BME280;23738;50.422;18.758;2023-02-20T10:15:44;98593.07;;;4.23;84.34
37904;BME280;23738;50.422;18.758;2023-02-20T10:18:22;98586.66;;;4.32;84.53
37904;BME280;23738;50.422;18.758;2023-02-20T10:20:59;98583.71;;;4.41;84.45
37904;BME280;23738;50.422;18.758;2023-02-20T10:23:36;98577.20;;;4.48;84.30
37904;BME280;23738;50.422;18.758;2023-02-20T10:26:07;98584.40;;;4.55;84.40
37904;BME280;23738;50.422;18.758;2023-02-20T10:28:38;98582.37;;;4.57;84.38
37904;BME280;23738;50.422;18.758;2023-02-20T10:31:17;98584.09;;;4.63;84.16
37904;BME280;23738;50.422;18.758;2023-02-20T10:33:51;98580.15;;;4.69;84.51
37904;BME280;23738;50.422;18.758;2023-02-20T10:36:24;98568.83;;;4.78;84.65
37904;BME280;23738;50.422;18.758;2023-02-20T10:38:55;98562.19;;;4.88;84.31
37904;BME280;23738;50.422;18.758;2023-02-20T10:41:29;98562.74;;;4.96;84.56
37904;BME280;23738;50.422;18.758;2023-02-20T10:44:03;98551.95;;;5.06;84.71
37904;BME280;23738;50.422;18.758;2023-02-20T10:46:37;98542.26;;;5.16;84.66
37904;BME280;23738;50.422;18.758;2023-02-20T10:49:10;98535.34;;;5.28;84.59
37904;BME280;23738;50.422;18.758;2023-02-20T10:51:43;98523.91;;;5.37;84.22
37904;BME280;23738;50.422;18.758;2023-02-20T10:54:15;98517.13;;;5.50;84.72
37904;BME280;23738;50.422;18.758;2023-02-20T10:56:49;98514.90;;;5.62;84.68
37904;BME280;23738;50.422;18.758;2023-02-20T10:59:24;98510.05;;;5.71;84.60
37904;BME280;23738;50.422;18.758;2023-02-20T11:01:56;98497.52;;;5.78;84.74
37904;BME280;23738;50.422;18.758;2023-02-20T11:04:27;98496.58;;;5.85;84.56
37904;BME280;23738;50.422;18.758;2023-02-20T11:06:59;98489.30;;;5.91;84.39
37904;BME280;23738;50.422;18.758;2023-02-20T11:09:27;98485.35;;;5.95;84.40
37904;BME280;23738;50.422;18.758;2023-02-20T11:11:55;98475.35;;;5.98;84.10
37904;BME280;23738;50.422;18.758;2023-02-20T11:14:29;98473.58;;;6.00;84.11
37904;BME280;23738;50.422;18.758;2023-02-20T11:16:59;98461.60;;;5.99;83.90
37904;BME280;23738;50.422;18.758;2023-02-20T11:19:33;98454.88;;;5.97;83.63
37904;BME280;23738;50.422;18.758;2023-02-20T11:22:04;98436.14;;;5.99;84.05
37904;BME280;23738;50.422;18.758;2023-02-20T11:24:34;98431.77;;;6.02;83.60
37904;BME280;23738;50.422;18.758;2023-02-20T11:27:11;98419.48;;;6.04;83.61
37904;BME280;23738;50.422;18.758;2023-02-20T11:29:50;98402.83;;;6.10;83.95
37904;BME280;23738;50.422;18.758;2023-02-20T11:32:27;98398.67;;;6.18;83.72
37904;BME280;23738;50.422;18.758;2023-02-20T11:35:18;98405.14;;;6.23;82.96
37904;BME280;23738;50.422;18.758;2023-02-20T11:37:49;98397.39;;;6.23;83.75
37904;BME280;23738;50.422;18.758;2023-02-20T11:40:23;98374.85;;;6.26;84.13
37904;BME280;23738;50.422;18.758;2023-02-20T11:42:52;98374.77;;;6.33;83.43
37904;BME280;23738;50.422;18.758;2023-02-20T11:45:24;98363.95;;;6.37;83.64
37904;BME280;23738;50.422;18.758;2023-02-20T11:48:07;98351.34;;;6.41;83.76
37904;BME280;23738;50.422;18.758;2023-02-20T11:50:40;98347.27;;;6.48;83.80
37904;BME280;23738;50.422;18.758;2023-02-20T11:53:18;98336.65;;;6.52;84.00
37904;BME280;23738;50.422;18.758;2023-02-20T11:55:46;98320.06;;;6.58;83.97
37904;BME280;23738;50.422;18.758;2023-02-20T11:58:22;98329.45;;;6.61;83.35
37904;BME280;23738;50.422;18.758;2023-02-20T12:00:51;98327.77;;;6.65;83.72
37904;BME280;23738;50.422;18.758;2023-02-20T12:03:22;98316.36;;;6.68;83.46
37904;BME280;23738;50.422;18.758;2023-02-20T12:05:50;98307.70;;;6.73;83.76
37904;BME280;23738;50.422;18.758;2023-02-20T12:08:33;98311.73;;;6.79;83.14
37904;BME280;23738;50.422;18.758;2023-02-20T12:11:04;98304.94;;;6.83;83.15
37904;BME280;23738;50.422;18.758;2023-02-20T12:13:36;98294.66;;;6.92;82.60
37904;BME280;23738;50.422;18.758;2023-02-20T12:16:21;98295.60;;;7.02;82.77
37904;BME280;23738;50.422;18.758;2023-02-20T12:18:55;98285.79;;;7.12;82.68
37904;BME280;23738;50.422;18.758;2023-02-20T12:21:32;98288.75;;;7.22;82.84
37904;BME280;23738;50.422;18.758;2023-02-20T12:26:58;98259.77;;;7.37;83.16
37904;BME280;23738;50.422;18.758;2023-02-20T12:29:40;98272.59;;;7.44;83.10
37904;BME280;23738;50.422;18.758;2023-02-20T12:32:24;98262.79;;;7.50;82.60
37904;BME280;23738;50.422;18.758;2023-02-20T12:35:02;98247.41;;;7.50;82.62
37904;BME280;23738;50.422;18.758;2023-02-20T12:37:32;98248.56;;;7.51;82.67
37904;BME280;23738;50.422;18.758;2023-02-20T12:40:22;98248.29;;;7.52;82.92
37904;BME280;23738;50.422;18.758;2023-02-20T12:42:59;98232.09;;;7.57;83.03
37904;BME280;23738;50.422;18.758;2023-02-20T12:45:36;98222.29;;;7.65;83.28
37904;BME280;23738;50.422;18.758;2023-02-20T12:48:21;98233.21;;;7.78;82.98
37904;BME280;23738;50.422;18.758;2023-02-20T12:51:01;98224.00;;;7.84;82.87
37904;BME280;23738;50.422;18.758;2023-02-20T12:53:51;98227.48;;;7.98;82.86
37904;BME280;23738;50.422;18.758;2023-02-20T12:56:40;98230.50;;;8.11;83.22
37904;BME280;23738;50.422;18.758;2023-02-20T12:59:23;98228.38;;;8.29;82.97
37904;BME280;23738;50.422;18.758;2023-02-20T13:01:53;98225.64;;;8.45;82.13
37904;BME280;23738;50.422;18.758;2023-02-20T13:04:26;98229.80;;;8.51;81.64
37904;BME280;23738;50.422;18.758;2023-02-20T13:07:02;98224.50;;;8.53;82.05
37904;BME280;23738;50.422;18.758;2023-02-20T13:09:34;98222.08;;;8.62;82.07
37904;BME280;23738;50.422;18.758;2023-02-20T13:12:06;98204.55;;;8.70;82.06
37904;BME280;23738;50.422;18.758;2023-02-20T13:14:47;98201.17;;;8.86;81.83
37904;BME280;23738;50.422;18.758;2023-02-20T13:17:28;98201.35;;;8.99;82.18
37904;BME280;23738;50.422;18.758;2023-02-20T13:20:06;98190.75;;;9.06;81.86
37904;BME280;23738;50.422;18.758;2023-02-20T13:22:35;98172.92;;;9.10;81.37
37904;BME280;23738;50.422;18.758;2023-02-20T13:25:36;98165.39;;;9.11;81.74
37904;BME280;23738;50.422;18.758;2023-02-20T13:31:10;98154.04;;;9.12;80.90
37904;BME280;23738;50.422;18.758;2023-02-20T13:33:38;98145.20;;;9.07;80.13
37904;BME280;23738;50.422;18.758;2023-02-20T13:42:33;98111.99;;;8.93;80.63
37904;BME280;23738;50.422;18.758;2023-02-20T13:45:01;98107.45;;;8.88;79.84
37904;BME280;23738;50.422;18.758;2023-02-20T13:47:45;98098.27;;;8.80;79.41
37904;BME280;23738;50.422;18.758;2023-02-20T13:50:32;98088.36;;;8.73;79.44
37904;BME280;23738;50.422;18.758;2023-02-20T13:53:02;98074.86;;;8.71;80.16
37904;BME280;23738;50.422;18.758;2023-02-20T13:55:29;98063.48;;;8.71;80.21